Terminal Aerodrome Forecast
Issued by NWS

Home | Current Version | Previous Version | Text Only | Print | Product List | Glossary Off
Versions: 1 2 3 4 5 6 7 8 9 10 11 12 13 14 15 16 17 18 19 20 21 22 23 24 25 26 27 28 29 30 31 32 33 34 35 36 37 38 39 40
000 FTUS41 KGYX 231120 TAFMHT TAF KMHT 231120Z 2312/2412 VRB05KT P6SM BKN070 OVC100 FM231700 19012G18KT P6SM BKN050 BKN100 FM240100 20011KT P6SM OVC015=

USA.gov is the U.S. government's official web portal to all federal, state and local government web resources and services.